sensor_id;sensor_type;location;lat;lon;timestamp;P1;durP1;ratioP1;P2;durP2;ratioP2
73150;SDS011;61354;50.758;6.106;2022-08-07T00:00:44;3.50;;;1.75;;
73150;SDS011;61354;50.758;6.106;2022-08-07T00:03:09;3.60;;;1.73;;
73150;SDS011;61354;50.758;6.106;2022-08-07T00:05:35;3.97;;;1.65;;
73150;SDS011;61354;50.758;6.106;2022-08-07T00:08:01;2.92;;;1.70;;
73150;SDS011;61354;50.758;6.106;2022-08-07T00:10:28;3.78;;;1.60;;
73150;SDS011;61354;50.758;6.106;2022-08-07T00:12:54;2.90;;;1.60;;
73150;SDS011;61354;50.758;6.106;2022-08-07T00:15:20;3.03;;;1.60;;
73150;SDS011;61354;50.758;6.106;2022-08-07T00:17:46;3.65;;;1.90;;
73150;SDS011;61354;50.758;6.106;2022-08-07T00:20:11;2.40;;;1.60;;
73150;SDS011;61354;50.758;6.106;2022-08-07T00:22:36;3.72;;;1.77;;
73150;SDS011;61354;50.758;6.106;2022-08-07T00:25:03;5.45;;;1.90;;
73150;SDS011;61354;50.758;6.106;2022-08-07T00:27:32;3.85;;;1.67;;
73150;SDS011;61354;50.758;6.106;2022-08-07T00:29:57;2.80;;;1.77;;
73150;SDS011;61354;50.758;6.106;2022-08-07T00:32:22;3.47;;;2.00;;
73150;SDS011;61354;50.758;6.106;2022-08-07T00:34:48;3.13;;;1.75;;
73150;SDS011;61354;50.758;6.106;2022-08-07T00:37:14;2.42;;;1.45;;
73150;SDS011;61354;50.758;6.106;2022-08-07T00:39:40;2.60;;;1.63;;
73150;SDS011;61354;50.758;6.106;2022-08-07T00:42:06;2.90;;;1.83;;
73150;SDS011;61354;50.758;6.106;2022-08-07T00:44:32;2.40;;;1.40;;
73150;SDS011;61354;50.758;6.106;2022-08-07T00:46:58;2.88;;;1.50;;
73150;SDS011;61354;50.758;6.106;2022-08-07T00:49:23;2.78;;;1.58;;
73150;SDS011;61354;50.758;6.106;2022-08-07T00:51:49;4.55;;;1.73;;
73150;SDS011;61354;50.758;6.106;2022-08-07T00:54:14;2.42;;;1.48;;
73150;SDS011;61354;50.758;6.106;2022-08-07T00:56:40;3.55;;;1.63;;
73150;SDS011;61354;50.758;6.106;2022-08-07T00:59:06;3.45;;;1.55;;
73150;SDS011;61354;50.758;6.106;2022-08-07T01:01:32;3.65;;;1.60;;
73150;SDS011;61354;50.758;6.106;2022-08-07T01:03:58;3.22;;;1.55;;
73150;SDS011;61354;50.758;6.106;2022-08-07T01:06:24;3.45;;;1.88;;
73150;SDS011;61354;50.758;6.106;2022-08-07T01:08:50;3.25;;;1.63;;
73150;SDS011;61354;50.758;6.106;2022-08-07T01:11:16;3.72;;;1.90;;
73150;SDS011;61354;50.758;6.106;2022-08-07T01:13:42;2.13;;;1.58;;
73150;SDS011;61354;50.758;6.106;2022-08-07T01:16:08;2.42;;;1.55;;
73150;SDS011;61354;50.758;6.106;2022-08-07T01:18:34;2.67;;;1.65;;
73150;SDS011;61354;50.758;6.106;2022-08-07T01:21:21;2.60;;;1.30;;
73150;SDS011;61354;50.758;6.106;2022-08-07T01:23:49;3.67;;;1.70;;
73150;SDS011;61354;50.758;6.106;2022-08-07T01:26:16;2.30;;;1.40;;
73150;SDS011;61354;50.758;6.106;2022-08-07T01:28:48;2.42;;;1.60;;
73150;SDS011;61354;50.758;6.106;2022-08-07T01:31:16;3.17;;;1.67;;
73150;SDS011;61354;50.758;6.106;2022-08-07T01:33:43;4.65;;;1.65;;
73150;SDS011;61354;50.758;6.106;2022-08-07T01:36:10;3.10;;;1.70;;
73150;SDS011;61354;50.758;6.106;2022-08-07T01:38:36;3.85;;;1.80;;
73150;SDS011;61354;50.758;6.106;2022-08-07T01:41:03;2.85;;;1.40;;
73150;SDS011;61354;50.758;6.106;2022-08-07T01:43:31;5.15;;;1.92;;
73150;SDS011;61354;50.758;6.106;2022-08-07T01:45:57;2.65;;;1.63;;
73150;SDS011;61354;50.758;6.106;2022-08-07T01:48:24;3.33;;;1.70;;
73150;SDS011;61354;50.758;6.106;2022-08-07T01:51:02;2.78;;;1.60;;
73150;SDS011;61354;50.758;6.106;2022-08-07T01:53:32;3.25;;;1.80;;
73150;SDS011;61354;50.758;6.106;2022-08-07T01:56:05;3.47;;;1.92;;
73150;SDS011;61354;50.758;6.106;2022-08-07T01:58:34;3.13;;;1.70;;
73150;SDS011;61354;50.758;6.106;2022-08-07T02:01:05;2.45;;;1.50;;
73150;SDS011;61354;50.758;6.106;2022-08-07T02:03:34;3.05;;;1.50;;
73150;SDS011;61354;50.758;6.106;2022-08-07T02:06:26;2.63;;;1.63;;
73150;SDS011;61354;50.758;6.106;2022-08-07T02:08:54;3.28;;;1.73;;
73150;SDS011;61354;50.758;6.106;2022-08-07T02:11:27;3.22;;;1.60;;
73150;SDS011;61354;50.758;6.106;2022-08-07T02:14:20;2.92;;;1.77;;
73150;SDS011;61354;50.758;6.106;2022-08-07T02:16:49;3.42;;;1.60;;
73150;SDS011;61354;50.758;6.106;2022-08-07T02:19:16;2.85;;;1.48;;
73150;SDS011;61354;50.758;6.106;2022-08-07T02:21:43;3.70;;;1.60;;
73150;SDS011;61354;50.758;6.106;2022-08-07T02:24:09;3.00;;;1.80;;
73150;SDS011;61354;50.758;6.106;2022-08-07T02:26:37;3.60;;;1.75;;
73150;SDS011;61354;50.758;6.106;2022-08-07T02:29:05;2.42;;;1.50;;
73150;SDS011;61354;50.758;6.106;2022-08-07T02:31:32;2.80;;;1.63;;
73150;SDS011;61354;50.758;6.106;2022-08-07T02:34:00;3.60;;;1.70;;
73150;SDS011;61354;50.758;6.106;2022-08-07T02:36:28;3.88;;;2.03;;
73150;SDS011;61354;50.758;6.106;2022-08-07T02:38:56;3.55;;;1.75;;
73150;SDS011;61354;50.758;6.106;2022-08-07T02:41:23;3.83;;;1.60;;
73150;SDS011;61354;50.758;6.106;2022-08-07T02:43:49;4.60;;;2.03;;
73150;SDS011;61354;50.758;6.106;2022-08-07T02:46:21;2.88;;;1.80;;
73150;SDS011;61354;50.758;6.106;2022-08-07T02:48:49;3.58;;;1.80;;
73150;SDS011;61354;50.758;6.106;2022-08-07T02:51:15;3.95;;;1.70;;
73150;SDS011;61354;50.758;6.106;2022-08-07T02:53:43;3.30;;;1.83;;
73150;SDS011;61354;50.758;6.106;2022-08-07T02:56:16;3.97;;;1.83;;
73150;SDS011;61354;50.758;6.106;2022-08-07T02:58:43;3.47;;;1.73;;
73150;SDS011;61354;50.758;6.106;2022-08-07T03:01:10;3.70;;;2.03;;
73150;SDS011;61354;50.758;6.106;2022-08-07T03:03:36;2.70;;;1.73;;
73150;SDS011;61354;50.758;6.106;2022-08-07T03:06:02;3.60;;;1.63;;
73150;SDS011;61354;50.758;6.106;2022-08-07T03:08:29;4.68;;;1.80;;
73150;SDS011;61354;50.758;6.106;2022-08-07T03:10:55;3.65;;;1.88;;
73150;SDS011;61354;50.758;6.106;2022-08-07T03:13:22;3.72;;;2.00;;
73150;SDS011;61354;50.758;6.106;2022-08-07T03:15:48;3.75;;;1.90;;
73150;SDS011;61354;50.758;6.106;2022-08-07T03:18:15;3.38;;;1.95;;
73150;SDS011;61354;50.758;6.106;2022-08-07T03:20:42;4.15;;;2.00;;
73150;SDS011;61354;50.758;6.106;2022-08-07T03:23:08;3.35;;;2.00;;
73150;SDS011;61354;50.758;6.106;2022-08-07T03:25:36;4.68;;;1.73;;
73150;SDS011;61354;50.758;6.106;2022-08-07T03:28:04;3.92;;;1.80;;
73150;SDS011;61354;50.758;6.106;2022-08-07T03:30:34;3.13;;;1.75;;
73150;SDS011;61354;50.758;6.106;2022-08-07T03:32:59;3.25;;;1.77;;
73150;SDS011;61354;50.758;6.106;2022-08-07T03:35:26;2.50;;;1.80;;
73150;SDS011;61354;50.758;6.106;2022-08-07T03:37:55;3.17;;;1.85;;
73150;SDS011;61354;50.758;6.106;2022-08-07T03:40:24;3.13;;;2.05;;
73150;SDS011;61354;50.758;6.106;2022-08-07T03:42:50;2.72;;;1.65;;
73150;SDS011;61354;50.758;6.106;2022-08-07T03:45:17;4.05;;;1.90;;
73150;SDS011;61354;50.758;6.106;2022-08-07T03:47:43;3.33;;;1.70;;
73150;SDS011;61354;50.758;6.106;2022-08-07T03:50:09;4.05;;;2.33;;
73150;SDS011;61354;50.758;6.106;2022-08-07T03:52:35;3.20;;;2.00;;
73150;SDS011;61354;50.758;6.106;2022-08-07T03:55:01;3.50;;;1.98;;
73150;SDS011;61354;50.758;6.106;2022-08-07T03:57:28;3.80;;;2.00;;
73150;SDS011;61354;50.758;6.106;2022-08-07T03:59:55;4.05;;;2.00;;
73150;SDS011;61354;50.758;6.106;2022-08-07T04:02:21;3.63;;;2.03;;
73150;SDS011;61354;50.758;6.106;2022-08-07T04:04:48;2.88;;;1.75;;
73150;SDS011;61354;50.758;6.106;2022-08-07T04:07:17;3.15;;;1.80;;
73150;SDS011;61354;50.758;6.106;2022-08-07T04:09:44;3.65;;;1.88;;
73150;SDS011;61354;50.758;6.106;2022-08-07T04:12:11;2.78;;;1.80;;
73150;SDS011;61354;50.758;6.106;2022-08-07T04:14:38;3.35;;;1.88;;
73150;SDS011;61354;50.758;6.106;2022-08-07T04:17:04;2.50;;;1.65;;
73150;SDS011;61354;50.758;6.106;2022-08-07T04:19:29;3.25;;;1.90;;
73150;SDS011;61354;50.758;6.106;2022-08-07T04:21:55;3.53;;;1.73;;
73150;SDS011;61354;50.758;6.106;2022-08-07T04:24:21;4.13;;;1.90;;
73150;SDS011;61354;50.758;6.106;2022-08-07T04:26:47;4.32;;;2.08;;
73150;SDS011;61354;50.758;6.106;2022-08-07T04:29:12;4.50;;;1.95;;
73150;SDS011;61354;50.758;6.106;2022-08-07T04:31:38;4.88;;;2.05;;
73150;SDS011;61354;50.758;6.106;2022-08-07T04:34:05;4.10;;;1.90;;
73150;SDS011;61354;50.758;6.106;2022-08-07T04:36:31;3.78;;;2.17;;
73150;SDS011;61354;50.758;6.106;2022-08-07T04:38:58;3.13;;;2.10;;
73150;SDS011;61354;50.758;6.106;2022-08-07T04:41:24;3.55;;;2.03;;
73150;SDS011;61354;50.758;6.106;2022-08-07T04:43:49;3.38;;;1.95;;
73150;SDS011;61354;50.758;6.106;2022-08-07T04:49:02;3.85;;;2.40;;
73150;SDS011;61354;50.758;6.106;2022-08-07T04:51:43;4.05;;;2.40;;
73150;SDS011;61354;50.758;6.106;2022-08-07T04:54:19;4.47;;;2.20;;
73150;SDS011;61354;50.758;6.106;2022-08-07T04:57:03;3.60;;;2.10;;
73150;SDS011;61354;50.758;6.106;2022-08-07T04:59:39;4.65;;;2.60;;
73150;SDS011;61354;50.758;6.106;2022-08-07T05:02:13;4.15;;;2.33;;
73150;SDS011;61354;50.758;6.106;2022-08-07T05:04:47;3.75;;;1.95;;
73150;SDS011;61354;50.758;6.106;2022-08-07T05:07:24;4.07;;;2.20;;
73150;SDS011;61354;50.758;6.106;2022-08-07T05:09:58;3.35;;;2.10;;
73150;SDS011;61354;50.758;6.106;2022-08-07T05:12:40;3.50;;;2.00;;
73150;SDS011;61354;50.758;6.106;2022-08-07T05:15:19;3.50;;;2.10;;
73150;SDS011;61354;50.758;6.106;2022-08-07T05:17:52;3.25;;;2.05;;
73150;SDS011;61354;50.758;6.106;2022-08-07T05:20:23;3.72;;;2.35;;
73150;SDS011;61354;50.758;6.106;2022-08-07T05:22:51;4.38;;;2.13;;
73150;SDS011;61354;50.758;6.106;2022-08-07T05:25:22;3.03;;;2.20;;
73150;SDS011;61354;50.758;6.106;2022-08-07T05:27:49;5.43;;;2.20;;
73150;SDS011;61354;50.758;6.106;2022-08-07T05:30:15;3.25;;;2.22;;
73150;SDS011;61354;50.758;6.106;2022-08-07T05:32:42;4.10;;;2.20;;
73150;SDS011;61354;50.758;6.106;2022-08-07T05:35:11;3.55;;;2.20;;
73150;SDS011;61354;50.758;6.106;2022-08-07T05:37:38;4.20;;;2.33;;
73150;SDS011;61354;50.758;6.106;2022-08-07T05:40:05;3.53;;;2.15;;
73150;SDS011;61354;50.758;6.106;2022-08-07T05:42:31;3.50;;;2.10;;
73150;SDS011;61354;50.758;6.106;2022-08-07T05:44:57;4.93;;;2.40;;
73150;SDS011;61354;50.758;6.106;2022-08-07T05:47:23;4.38;;;2.55;;
73150;SDS011;61354;50.758;6.106;2022-08-07T05:49:49;3.75;;;2.22;;
73150;SDS011;61354;50.758;6.106;2022-08-07T05:52:18;4.18;;;2.42;;
73150;SDS011;61354;50.758;6.106;2022-08-07T05:54:44;3.70;;;2.22;;
73150;SDS011;61354;50.758;6.106;2022-08-07T05:57:11;5.72;;;2.30;;
73150;SDS011;61354;50.758;6.106;2022-08-07T05:59:37;4.40;;;2.08;;
73150;SDS011;61354;50.758;6.106;2022-08-07T06:02:06;3.30;;;2.00;;
73150;SDS011;61354;50.758;6.106;2022-08-07T06:04:33;4.03;;;2.35;;
73150;SDS011;61354;50.758;6.106;2022-08-07T06:07:03;4.82;;;2.40;;
73150;SDS011;61354;50.758;6.106;2022-08-07T06:09:32;4.05;;;2.65;;
73150;SDS011;61354;50.758;6.106;2022-08-07T06:11:58;5.57;;;2.60;;
73150;SDS011;61354;50.758;6.106;2022-08-07T06:14:24;5.75;;;2.40;;
73150;SDS011;61354;50.758;6.106;2022-08-07T06:16:50;3.70;;;2.33;;
73150;SDS011;61354;50.758;6.106;2022-08-07T06:19:16;5.32;;;2.67;;
73150;SDS011;61354;50.758;6.106;2022-08-07T06:21:43;4.45;;;2.88;;
73150;SDS011;61354;50.758;6.106;2022-08-07T06:24:10;4.60;;;3.10;;
73150;SDS011;61354;50.758;6.106;2022-08-07T06:26:51;5.57;;;2.45;;
73150;SDS011;61354;50.758;6.106;2022-08-07T06:29:17;5.00;;;2.95;;
73150;SDS011;61354;50.758;6.106;2022-08-07T06:31:42;5.70;;;2.88;;
73150;SDS011;61354;50.758;6.106;2022-08-07T06:34:08;5.90;;;2.97;;
73150;SDS011;61354;50.758;6.106;2022-08-07T06:36:33;6.95;;;3.50;;
73150;SDS011;61354;50.758;6.106;2022-08-07T06:38:59;6.53;;;3.10;;
73150;SDS011;61354;50.758;6.106;2022-08-07T06:41:33;4.03;;;2.58;;
73150;SDS011;61354;50.758;6.106;2022-08-07T06:44:05;5.95;;;2.75;;
73150;SDS011;61354;50.758;6.106;2022-08-07T06:46:33;4.18;;;2.70;;
73150;SDS011;61354;50.758;6.106;2022-08-07T06:48:59;6.00;;;2.97;;
73150;SDS011;61354;50.758;6.106;2022-08-07T06:51:26;3.95;;;2.28;;
73150;SDS011;61354;50.758;6.106;2022-08-07T06:53:56;4.32;;;2.42;;
73150;SDS011;61354;50.758;6.106;2022-08-07T06:56:27;6.20;;;2.67;;
73150;SDS011;61354;50.758;6.106;2022-08-07T06:59:15;4.55;;;2.75;;
73150;SDS011;61354;50.758;6.106;2022-08-07T07:01:47;6.53;;;2.60;;
73150;SDS011;61354;50.758;6.106;2022-08-07T07:04:13;3.97;;;2.40;;
73150;SDS011;61354;50.758;6.106;2022-08-07T07:06:40;5.30;;;2.60;;
73150;SDS011;61354;50.758;6.106;2022-08-07T07:09:18;3.95;;;2.25;;
73150;SDS011;61354;50.758;6.106;2022-08-07T07:14:36;6.13;;;3.03;;
73150;SDS011;61354;50.758;6.106;2022-08-07T07:17:14;5.43;;;2.20;;
73150;SDS011;61354;50.758;6.106;2022-08-07T07:19:46;4.70;;;2.65;;
73150;SDS011;61354;50.758;6.106;2022-08-07T07:22:25;4.50;;;2.60;;
73150;SDS011;61354;50.758;6.106;2022-08-07T07:24:53;4.82;;;2.60;;
73150;SDS011;61354;50.758;6.106;2022-08-07T07:27:20;6.82;;;2.53;;
73150;SDS011;61354;50.758;6.106;2022-08-07T07:29:55;3.80;;;2.10;;
73150;SDS011;61354;50.758;6.106;2022-08-07T07:32:24;3.50;;;2.15;;
73150;SDS011;61354;50.758;6.106;2022-08-07T07:34:54;3.05;;;1.77;;
73150;SDS011;61354;50.758;6.106;2022-08-07T07:37:23;4.25;;;2.00;;
73150;SDS011;61354;50.758;6.106;2022-08-07T07:39:51;5.60;;;2.13;;
73150;SDS011;61354;50.758;6.106;2022-08-07T07:42:21;2.80;;;1.67;;
73150;SDS011;61354;50.758;6.106;2022-08-07T07:44:48;4.50;;;1.83;;
73150;SDS011;61354;50.758;6.106;2022-08-07T07:47:14;3.10;;;1.80;;
73150;SDS011;61354;50.758;6.106;2022-08-07T07:49:41;3.60;;;1.75;;
73150;SDS011;61354;50.758;6.106;2022-08-07T07:52:09;3.60;;;2.28;;
73150;SDS011;61354;50.758;6.106;2022-08-07T07:54:36;3.38;;;2.10;;
73150;SDS011;61354;50.758;6.106;2022-08-07T07:57:05;3.95;;;2.10;;
73150;SDS011;61354;50.758;6.106;2022-08-07T08:02:00;3.92;;;1.80;;
73150;SDS011;61354;50.758;6.106;2022-08-07T08:04:28;4.43;;;1.90;;
73150;SDS011;61354;50.758;6.106;2022-08-07T08:06:56;2.13;;;1.33;;
73150;SDS011;61354;50.758;6.106;2022-08-07T08:09:23;2.25;;;1.15;;
73150;SDS011;61354;50.758;6.106;2022-08-07T08:11:50;2.78;;;1.40;;
73150;SDS011;61354;50.758;6.106;2022-08-07T08:14:17;2.50;;;1.40;;
73150;SDS011;61354;50.758;6.106;2022-08-07T08:16:43;2.45;;;1.20;;
73150;SDS011;61354;50.758;6.106;2022-08-07T08:19:14;2.90;;;1.15;;
73150;SDS011;61354;50.758;6.106;2022-08-07T08:21:43;1.65;;;1.10;;
73150;SDS011;61354;50.758;6.106;2022-08-07T08:24:31;2.15;;;1.25;;
73150;SDS011;61354;50.758;6.106;2022-08-07T08:27:22;2.28;;;1.23;;
73150;SDS011;61354;50.758;6.106;2022-08-07T08:29:52;2.95;;;1.30;;
73150;SDS011;61354;50.758;6.106;2022-08-07T08:32:26;2.67;;;1.30;;
73150;SDS011;61354;50.758;6.106;2022-08-07T08:34:53;3.15;;;1.50;;
73150;SDS011;61354;50.758;6.106;2022-08-07T08:37:22;3.50;;;1.45;;
73150;SDS011;61354;50.758;6.106;2022-08-07T08:39:52;2.13;;;1.23;;
73150;SDS011;61354;50.758;6.106;2022-08-07T08:42:20;2.22;;;1.20;;
73150;SDS011;61354;50.758;6.106;2022-08-07T08:47:37;2.03;;;1.15;;
73150;SDS011;61354;50.758;6.106;2022-08-07T08:52:45;2.25;;;1.10;;
73150;SDS011;61354;50.758;6.106;2022-08-07T08:55:37;1.88;;;0.95;;
73150;SDS011;61354;50.758;6.106;2022-08-07T08:58:14;1.75;;;0.75;;
73150;SDS011;61354;50.758;6.106;2022-08-07T09:00:54;1.35;;;0.63;;
73150;SDS011;61354;50.758;6.106;2022-08-07T09:06:03;0.85;;;0.77;;
73150;SDS011;61354;50.758;6.106;2022-08-07T09:11:15;1.67;;;0.75;;
73150;SDS011;61354;50.758;6.106;2022-08-07T09:16:50;2.20;;;0.80;;
73150;SDS011;61354;50.758;6.106;2022-08-07T09:22:05;1.33;;;0.85;;
73150;SDS011;61354;50.758;6.106;2022-08-07T09:35:02;2.15;;;0.90;;
73150;SDS011;61354;50.758;6.106;2022-08-07T09:54:32;2.15;;;0.80;;
73150;SDS011;61354;50.758;6.106;2022-08-07T10:00:20;1.35;;;0.90;;
73150;SDS011;61354;50.758;6.106;2022-08-07T10:10:59;1.23;;;0.75;;
73150;SDS011;61354;50.758;6.106;2022-08-07T10:24:42;3.25;;;0.85;;
73150;SDS011;61354;50.758;6.106;2022-08-07T10:29:45;2.10;;;1.33;;
73150;SDS011;61354;50.758;6.106;2022-08-07T10:47:15;2.47;;;0.95;;
73150;SDS011;61354;50.758;6.106;2022-08-07T10:55:20;2.15;;;0.98;;
73150;SDS011;61354;50.758;6.106;2022-08-07T11:00:53;2.33;;;0.90;;
73150;SDS011;61354;50.758;6.106;2022-08-07T11:03:31;3.75;;;1.08;;
73150;SDS011;61354;50.758;6.106;2022-08-07T11:06:19;2.80;;;1.20;;
73150;SDS011;61354;50.758;6.106;2022-08-07T11:08:53;2.92;;;1.25;;
73150;SDS011;61354;50.758;6.106;2022-08-07T11:11:36;2.03;;;0.90;;
73150;SDS011;61354;50.758;6.106;2022-08-07T11:14:42;1.92;;;0.90;;
73150;SDS011;61354;50.758;6.106;2022-08-07T11:19:48;1.38;;;0.90;;
73150;SDS011;61354;50.758;6.106;2022-08-07T11:27:48;1.50;;;0.90;;
73150;SDS011;61354;50.758;6.106;2022-08-07T11:30:55;1.85;;;1.20;;
73150;SDS011;61354;50.758;6.106;2022-08-07T11:33:41;1.35;;;0.90;;
73150;SDS011;61354;50.758;6.106;2022-08-07T11:41:49;2.03;;;0.90;;
73150;SDS011;61354;50.758;6.106;2022-08-07T11:44:38;1.85;;;1.20;;
73150;SDS011;61354;50.758;6.106;2022-08-07T12:01:46;2.38;;;0.93;;
73150;SDS011;61354;50.758;6.106;2022-08-07T12:04:31;1.35;;;1.00;;
73150;SDS011;61354;50.758;6.106;2022-08-07T12:07:17;1.35;;;0.80;;
73150;SDS011;61354;50.758;6.106;2022-08-07T12:09:48;3.65;;;0.90;;
73150;SDS011;61354;50.758;6.106;2022-08-07T12:12:27;0.93;;;0.80;;
73150;SDS011;61354;50.758;6.106;2022-08-07T12:14:58;2.95;;;1.00;;
73150;SDS011;61354;50.758;6.106;2022-08-07T12:17:34;2.53;;;1.00;;
73150;SDS011;61354;50.758;6.106;2022-08-07T12:20:09;1.55;;;0.90;;
73150;SDS011;61354;50.758;6.106;2022-08-07T12:25:45;2.28;;;0.88;;
73150;SDS011;61354;50.758;6.106;2022-08-07T12:30:47;5.25;;;1.00;;
73150;SDS011;61354;50.758;6.106;2022-08-07T12:33:16;2.97;;;1.00;;
73150;SDS011;61354;50.758;6.106;2022-08-07T12:35:46;1.67;;;0.98;;
73150;SDS011;61354;50.758;6.106;2022-08-07T12:38:14;1.05;;;0.90;;
73150;SDS011;61354;50.758;6.106;2022-08-07T12:40:41;1.88;;;0.80;;
73150;SDS011;61354;50.758;6.106;2022-08-07T12:43:09;1.40;;;0.80;;
73150;SDS011;61354;50.758;6.106;2022-08-07T12:48:27;2.40;;;0.95;;
73150;SDS011;61354;50.758;6.106;2022-08-07T12:51:38;2.05;;;0.82;;
73150;SDS011;61354;50.758;6.106;2022-08-07T12:53:50;0.82;;;0.82;;
73150;SDS011;61354;50.758;6.106;2022-08-07T12:56:24;1.33;;;0.80;;
73150;SDS011;61354;50.758;6.106;2022-08-07T12:58:51;0.95;;;0.70;;
73150;SDS011;61354;50.758;6.106;2022-08-07T13:09:13;1.15;;;0.80;;
73150;SDS011;61354;50.758;6.106;2022-08-07T13:17:48;1.20;;;0.70;;
73150;SDS011;61354;50.758;6.106;2022-08-07T13:20:25;2.05;;;0.90;;
73150;SDS011;61354;50.758;6.106;2022-08-07T13:23:08;1.80;;;1.05;;
73150;SDS011;61354;50.758;6.106;2022-08-07T13:25:49;1.48;;;0.80;;
73150;SDS011;61354;50.758;6.106;2022-08-07T13:28:20;1.15;;;0.80;;
73150;SDS011;61354;50.758;6.106;2022-08-07T13:30:54;1.02;;;0.80;;
73150;SDS011;61354;50.758;6.106;2022-08-07T13:33:26;1.00;;;0.90;;
73150;SDS011;61354;50.758;6.106;2022-08-07T13:35:56;0.93;;;0.82;;
73150;SDS011;61354;50.758;6.106;2022-08-07T13:43:54;3.60;;;1.25;;
73150;SDS011;61354;50.758;6.106;2022-08-07T13:46:21;1.40;;;0.90;;
73150;SDS011;61354;50.758;6.106;2022-08-07T13:48:54;2.28;;;0.80;;
73150;SDS011;61354;50.758;6.106;2022-08-07T13:51:23;2.25;;;0.90;;
73150;SDS011;61354;50.758;6.106;2022-08-07T13:53:58;1.55;;;0.90;;
73150;SDS011;61354;50.758;6.106;2022-08-07T13:56:26;1.38;;;0.80;;
73150;SDS011;61354;50.758;6.106;2022-08-07T13:58:53;1.23;;;0.80;;
73150;SDS011;61354;50.758;6.106;2022-08-07T14:01:37;1.55;;;0.70;;
73150;SDS011;61354;50.758;6.106;2022-08-07T14:04:09;1.80;;;0.90;;
73150;SDS011;61354;50.758;6.106;2022-08-07T14:06:38;1.05;;;0.90;;
73150;SDS011;61354;50.758;6.106;2022-08-07T14:09:25;1.00;;;0.80;;
73150;SDS011;61354;50.758;6.106;2022-08-07T14:11:55;2.05;;;0.95;;
73150;SDS011;61354;50.758;6.106;2022-08-07T14:14:30;2.08;;;0.90;;
73150;SDS011;61354;50.758;6.106;2022-08-07T14:17:05;0.98;;;0.88;;
73150;SDS011;61354;50.758;6.106;2022-08-07T14:19:35;1.38;;;1.00;;
73150;SDS011;61354;50.758;6.106;2022-08-07T14:22:24;1.33;;;0.95;;
73150;SDS011;61354;50.758;6.106;2022-08-07T14:24:59;1.48;;;1.00;;
73150;SDS011;61354;50.758;6.106;2022-08-07T14:27:32;1.17;;;0.90;;
73150;SDS011;61354;50.758;6.106;2022-08-07T14:30:02;1.05;;;0.75;;
73150;SDS011;61354;50.758;6.106;2022-08-07T14:32:43;1.15;;;0.95;;
73150;SDS011;61354;50.758;6.106;2022-08-07T14:35:15;1.52;;;0.80;;
73150;SDS011;61354;50.758;6.106;2022-08-07T14:37:44;1.92;;;0.85;;
73150;SDS011;61354;50.758;6.106;2022-08-07T14:40:15;1.17;;;0.90;;
73150;SDS011;61354;50.758;6.106;2022-08-07T14:42:42;2.08;;;1.00;;
73150;SDS011;61354;50.758;6.106;2022-08-07T14:45:09;1.30;;;0.90;;
73150;SDS011;61354;50.758;6.106;2022-08-07T14:50:04;2.92;;;1.20;;
73150;SDS011;61354;50.758;6.106;2022-08-07T14:52:32;1.60;;;0.90;;
73150;SDS011;61354;50.758;6.106;2022-08-07T14:55:00;1.23;;;0.88;;
73150;SDS011;61354;50.758;6.106;2022-08-07T14:57:28;1.30;;;0.93;;
73150;SDS011;61354;50.758;6.106;2022-08-07T14:59:56;2.42;;;1.00;;
73150;SDS011;61354;50.758;6.106;2022-08-07T15:02:26;1.35;;;0.93;;
73150;SDS011;61354;50.758;6.106;2022-08-07T15:04:53;1.88;;;1.00;;
73150;SDS011;61354;50.758;6.106;2022-08-07T15:07:28;1.73;;;0.90;;
73150;SDS011;61354;50.758;6.106;2022-08-07T15:09:56;2.72;;;0.98;;
73150;SDS011;61354;50.758;6.106;2022-08-07T15:12:27;1.58;;;0.90;;
73150;SDS011;61354;50.758;6.106;2022-08-07T15:15:00;1.83;;;1.02;;
73150;SDS011;61354;50.758;6.106;2022-08-07T15:17:30;2.15;;;1.20;;
73150;SDS011;61354;50.758;6.106;2022-08-07T15:20:02;1.60;;;0.93;;
73150;SDS011;61354;50.758;6.106;2022-08-07T15:22:34;1.13;;;0.93;;
73150;SDS011;61354;50.758;6.106;2022-08-07T15:25:10;1.75;;;0.90;;
73150;SDS011;61354;50.758;6.106;2022-08-07T15:27:40;2.25;;;1.00;;
73150;SDS011;61354;50.758;6.106;2022-08-07T15:30:07;1.30;;;1.00;;
73150;SDS011;61354;50.758;6.106;2022-08-07T15:32:39;2.85;;;1.20;;
73150;SDS011;61354;50.758;6.106;2022-08-07T15:35:12;3.05;;;1.30;;
73150;SDS011;61354;50.758;6.106;2022-08-07T15:37:40;2.08;;;1.17;;
73150;SDS011;61354;50.758;6.106;2022-08-07T15:40:11;2.10;;;1.20;;
73150;SDS011;61354;50.758;6.106;2022-08-07T15:45:57;1.70;;;1.10;;
73150;SDS011;61354;50.758;6.106;2022-08-07T15:48:44;1.70;;;0.93;;
73150;SDS011;61354;50.758;6.106;2022-08-07T15:50:55;1.67;;;1.10;;
73150;SDS011;61354;50.758;6.106;2022-08-07T15:53:28;2.55;;;1.30;;
73150;SDS011;61354;50.758;6.106;2022-08-07T15:56:02;3.60;;;1.35;;
73150;SDS011;61354;50.758;6.106;2022-08-07T16:01:22;3.40;;;1.50;;
73150;SDS011;61354;50.758;6.106;2022-08-07T16:03:51;2.45;;;1.52;;
73150;SDS011;61354;50.758;6.106;2022-08-07T16:06:54;3.83;;;1.15;;
73150;SDS011;61354;50.758;6.106;2022-08-07T16:09:21;2.25;;;1.30;;
73150;SDS011;61354;50.758;6.106;2022-08-07T16:25:47;2.47;;;1.27;;
73150;SDS011;61354;50.758;6.106;2022-08-07T16:31:57;2.85;;;1.38;;
73150;SDS011;61354;50.758;6.106;2022-08-07T16:34:40;2.10;;;1.30;;
73150;SDS011;61354;50.758;6.106;2022-08-07T16:48:06;2.42;;;1.38;;
73150;SDS011;61354;50.758;6.106;2022-08-07T16:51:00;3.50;;;1.20;;
73150;SDS011;61354;50.758;6.106;2022-08-07T17:00:00;3.03;;;1.42;;
73150;SDS011;61354;50.758;6.106;2022-08-07T17:05:41;3.47;;;1.60;;
73150;SDS011;61354;50.758;6.106;2022-08-07T17:08:07;4.63;;;1.60;;
73150;SDS011;61354;50.758;6.106;2022-08-07T17:10:47;2.58;;;1.70;;
73150;SDS011;61354;50.758;6.106;2022-08-07T17:21:02;2.72;;;1.63;;
73150;SDS011;61354;50.758;6.106;2022-08-07T17:23:38;4.38;;;1.50;;
73150;SDS011;61354;50.758;6.106;2022-08-07T17:26:13;2.55;;;1.33;;
73150;SDS011;61354;50.758;6.106;2022-08-07T17:31:17;3.63;;;1.52;;
73150;SDS011;61354;50.758;6.106;2022-08-07T17:33:48;2.60;;;1.50;;
73150;SDS011;61354;50.758;6.106;2022-08-07T17:36:22;3.30;;;1.45;;
73150;SDS011;61354;50.758;6.106;2022-08-07T17:41:36;2.08;;;1.30;;
73150;SDS011;61354;50.758;6.106;2022-08-07T17:44:16;1.77;;;1.30;;
73150;SDS011;61354;50.758;6.106;2022-08-07T17:46:47;2.03;;;1.25;;
73150;SDS011;61354;50.758;6.106;2022-08-07T17:49:23;4.45;;;1.80;;
73150;SDS011;61354;50.758;6.106;2022-08-07T17:52:05;2.00;;;1.33;;
73150;SDS011;61354;50.758;6.106;2022-08-07T17:54:46;4.00;;;1.65;;
73150;SDS011;61354;50.758;6.106;2022-08-07T17:57:16;3.08;;;1.50;;
73150;SDS011;61354;50.758;6.106;2022-08-07T17:59:49;2.45;;;1.40;;
73150;SDS011;61354;50.758;6.106;2022-08-07T18:02:39;4.13;;;1.40;;
73150;SDS011;61354;50.758;6.106;2022-08-07T18:08:09;2.67;;;1.40;;
73150;SDS011;61354;50.758;6.106;2022-08-07T18:10:49;2.75;;;1.48;;
73150;SDS011;61354;50.758;6.106;2022-08-07T18:21:34;3.45;;;1.55;;
73150;SDS011;61354;50.758;6.106;2022-08-07T18:29:09;1.83;;;1.30;;
73150;SDS011;61354;50.758;6.106;2022-08-07T18:34:28;3.13;;;1.88;;
73150;SDS011;61354;50.758;6.106;2022-08-07T18:37:23;2.92;;;1.67;;
73150;SDS011;61354;50.758;6.106;2022-08-07T18:42:59;3.17;;;2.00;;
73150;SDS011;61354;50.758;6.106;2022-08-07T18:45:30;3.63;;;1.77;;
73150;SDS011;61354;50.758;6.106;2022-08-07T18:56:26;2.85;;;1.75;;
73150;SDS011;61354;50.758;6.106;2022-08-07T18:58:49;4.18;;;1.88;;
73150;SDS011;61354;50.758;6.106;2022-08-07T19:01:29;4.32;;;2.10;;
73150;SDS011;61354;50.758;6.106;2022-08-07T19:04:12;3.15;;;1.80;;
73150;SDS011;61354;50.758;6.106;2022-08-07T19:06:52;4.00;;;2.35;;
73150;SDS011;61354;50.758;6.106;2022-08-07T19:17:33;5.03;;;2.38;;
73150;SDS011;61354;50.758;6.106;2022-08-07T20:05:59;4.18;;;2.20;;
73150;SDS011;61354;50.758;6.106;2022-08-07T20:08:30;3.20;;;2.00;;
73150;SDS011;61354;50.758;6.106;2022-08-07T20:13:54;3.42;;;2.00;;